Hernando, MS (38632)

5:56 PM CDT on June 03, 2015 (GMT -0500)
Oak Manor S/D | | Change Station
CLOSE
Current Station
Personal Weather Station
Location: Hernando, MS
Elevation: 259 ft
Nearby Weather Stations

Elev 259 ft 34.82 °N, 90.04 °W | Updated 10 seconds ago

Mostly Cloudy
Mostly Cloudy
77.8 °F
Feels Like 80 °F
N
1.0
Wind Variable Wind from NNE
Gusts 1.0 mph

Today
High -- | Low -- °F
--% Chance of Precip.
Yesterday
High -- | Low -- °F
Precip. -- in
5:47 AM 8:09 PM
Full, 98% visible
Pressure 29.98 in
Visibility 10.0 miles
Clouds Mostly Cloudy 4000 ft
Mostly Cloudy 25000 ft
Heat Index 80 °F
Dew Point 65 °F
Humidity 64%
Rainfall 0.00 in
Snow Depth Not available.
UV 2 out of 12
Pollen 6.00 out of 12
Air Quality Not available.
Flu Activity No Activity
SPECI KMEM 032216Z 04006KT 10SM BKN040 BKN250 25/16 A2998 RMK AO2

More Conditions Fewer Conditions

Pressure 29.98 in
Visibility 10.0 miles
Clouds Mostly Cloudy 4000 ft
Mostly Cloudy 25000 ft
Heat Index 80 °F
Dew Point 65 °F
Humidity 64%
Rainfall 0.00 in
Snow Depth Not available.
UV 2 out of 12
Pollen 6.00 out of 12
Air Quality Not available.
Flu Activity No Activity
SPECI KMEM 032216Z 04006KT 10SM BKN040 BKN250 25/16 A2998 RMK AO2

More Conditions Fewer Conditions

10-Day Weather Forecast

×

Almanac

Astronomy

Jun. 03, 2015 Rise Set
Actual Time
Civil Twilight
Nautical Twilight
Astronomical Twilight
Moon
Length of Visible Light
Length of Day
Tomorrow will be .
, % of the Moon is Illuminated

Today's Extremes

State Highs State Lows

Community

WunderPhotos

Upload Photos

1,826,295 photos uploaded!

WunderBlogs® & News

Nearby

Air Quality

  Air Quality AQ Index Pollutant
Not available.

Snow Depth

Station Depth Elevation

Earthquake Activity

City Distance Mag. Time & Date
Minimum magnitude displayed is 2.5.

Coastal Water Temperatures

Place Temperature

Stations

Nearby Weather Stations

Station Location Temp. Windchill Dew Point Humidity Wind Precip. Elev Updated Type